Etusivu
METAR-TAF:

METAR-TAF

Lentoasemat :

Tampere, Suomi

Tampere-Pirkkalan lentoasema

Leveyspiiri: 61-25N, Pituuspiiri: 023-35E, korkeus merenpinnasta: 112 m

Tämänhetkinen sää

Tämä raportti tehtiin 27 minuuttia sitten, kello 23.50 UTC
Tuuli 1 kn eri suunnista
Lämpötila 6°C
Kosteus 100%
Ilmanpaine 1013 hPa
Näkyvyys 10 km tai enemmän
ei pilviä alle 1500 m:ssä eikä cumulonimbus-pilviä

METAR: EFTP 282350Z AUTO VRB01KT CAVOK 06/06 Q1013

Aika: 03:17 (00:17 UTC)

Sääennuste

Tämä raportti tehtiin 47 minuuttia sitten, kello 23.30 UTC
Ennuste voimassa 29. päivästä klo 00 UTC - 29. päivään klo 24 UTC
Tuuli 3 kn pohjoisen/luoteesta
Näkyvyys 10 km tai enemmän
ei pilviä alle 1500 m:ssä eikä cumulonimbus-pilviä
Tulossa
29. päivästä klo 07 UTC - 29. päivään klo 09 UTC
Tuuli 10 kn idästä

TAF: EFTP 282330Z 2900/2924 34003KT CAVOK BECMG 2907/2909 09010KT

Säähavainnot ja -ennusteet yli 4000 lentoasemalta (METAR- ja TAF-raportit).

Käytössä olevat sääasemat on merkitty karttaan keltaisilla ja punaisilla pisteillä.

Aseta hiiri pisteen päälle nähdäksesi sääaseman nimen.

Klikkaa sitten nähdäksesi säähavainnot ja -ennusteet.

Kartan vaihtaminen: klikkaa mustalla rastilla varustettuja vihreitä pisteitä, niin voit zoomata sisään; viivalla varustettua vihreää pistettä, niin voit zoomata ulos tai vihreitä nuolia, niin pääset viereisille kartoille.


METAR-TAF: